Terminal Aerodrome Forecast
Issued by NWS Louisville, KY

Home | Current Version | Previous Version | Text Only | Print | Product List | Glossary On
Versions: 1 2 3 4 5 6 7 8 9 10 11 12 13 14 15
000
FTUS43 KLMK 082358 CCA
TAFSDF
TAF COR
KSDF 082358Z 0900/1006 30012KT P6SM OVC035
     FM090400 29009KT P6SM OVC022
     FM091700 29006KT P6SM SCT030=

USA.gov is the U.S. government's official web portal to all federal, state and local government web resources and services.